sensor_id;sensor_type;location;lat;lon;timestamp;pressure;altitude;pressure_sealevel;temperature;humidity
8894;BME280;4483;48.622;9.230;2023-05-10T00:00:30;97227.69;;;15.10;100.00
8894;BME280;4483;48.622;9.230;2023-05-10T00:02:57;97227.69;;;15.10;100.00
8894;BME280;4483;48.622;9.230;2023-05-10T00:05:23;97225.09;;;15.10;100.00
8894;BME280;4483;48.622;9.230;2023-05-10T00:07:50;97223.75;;;15.04;100.00
8894;BME280;4483;48.622;9.230;2023-05-10T00:10:17;97227.59;;;14.99;100.00
8894;BME280;4483;48.622;9.230;2023-05-10T00:12:45;97222.50;;;14.97;100.00
8894;BME280;4483;48.622;9.230;2023-05-10T00:15:11;97222.91;;;14.91;100.00
8894;BME280;4483;48.622;9.230;2023-05-10T00:17:38;97229.97;;;14.89;100.00
8894;BME280;4483;48.622;9.230;2023-05-10T00:20:05;97228.50;;;14.85;100.00
8894;BME280;4483;48.622;9.230;2023-05-10T00:22:33;97231.09;;;14.85;100.00
8894;BME280;4483;48.622;9.230;2023-05-10T00:25:00;97233.91;;;14.82;100.00
8894;BME280;4483;48.622;9.230;2023-05-10T00:27:26;97238.06;;;14.85;100.00
8894;BME280;4483;48.622;9.230;2023-05-10T00:29:54;97232.94;;;14.83;100.00
8894;BME280;4483;48.622;9.230;2023-05-10T00:32:21;97234.41;;;14.87;100.00
8894;BME280;4483;48.622;9.230;2023-05-10T00:34:47;97234.91;;;14.80;100.00
8894;BME280;4483;48.622;9.230;2023-05-10T00:37:14;97239.47;;;14.76;100.00
8894;BME280;4483;48.622;9.230;2023-05-10T00:39:41;97239.69;;;14.73;100.00
8894;BME280;4483;48.622;9.230;2023-05-10T00:42:07;97241.56;;;14.71;100.00
8894;BME280;4483;48.622;9.230;2023-05-10T00:44:34;97241.66;;;14.70;100.00
8894;BME280;4483;48.622;9.230;2023-05-10T00:47:02;97247.03;;;14.67;100.00
8894;BME280;4483;48.622;9.230;2023-05-10T00:49:29;97239.38;;;14.65;100.00
8894;BME280;4483;48.622;9.230;2023-05-10T00:51:56;97246.13;;;14.68;100.00
8894;BME280;4483;48.622;9.230;2023-05-10T00:54:23;97247.78;;;14.69;100.00
8894;BME280;4483;48.622;9.230;2023-05-10T00:56:50;97246.00;;;14.69;100.00
8894;BME280;4483;48.622;9.230;2023-05-10T00:59:18;97252.03;;;14.70;100.00
8894;BME280;4483;48.622;9.230;2023-05-10T01:01:45;97263.31;;;14.69;100.00
8894;BME280;4483;48.622;9.230;2023-05-10T01:04:14;97255.75;;;14.66;100.00
8894;BME280;4483;48.622;9.230;2023-05-10T01:06:41;97259.81;;;14.70;100.00
8894;BME280;4483;48.622;9.230;2023-05-10T01:09:08;97257.34;;;14.68;100.00
8894;BME280;4483;48.622;9.230;2023-05-10T01:11:35;97261.06;;;14.64;100.00
8894;BME280;4483;48.622;9.230;2023-05-10T01:14:03;97260.09;;;14.65;100.00
8894;BME280;4483;48.622;9.230;2023-05-10T01:16:32;97274.53;;;14.69;100.00
8894;BME280;4483;48.622;9.230;2023-05-10T01:19:01;97274.66;;;14.68;100.00
8894;BME280;4483;48.622;9.230;2023-05-10T01:21:37;97276.41;;;14.67;100.00
8894;BME280;4483;48.622;9.230;2023-05-10T01:24:23;97279.94;;;14.66;100.00
8894;BME280;4483;48.622;9.230;2023-05-10T01:27:11;97280.94;;;14.64;100.00
8894;BME280;4483;48.622;9.230;2023-05-10T01:30:08;97282.81;;;14.62;100.00
8894;BME280;4483;48.622;9.230;2023-05-10T01:32:44;97284.66;;;14.60;100.00
8894;BME280;4483;48.622;9.230;2023-05-10T01:35:19;97287.38;;;14.58;100.00
8894;BME280;4483;48.622;9.230;2023-05-10T01:37:54;97291.72;;;14.58;100.00
8894;BME280;4483;48.622;9.230;2023-05-10T01:40:30;97295.25;;;14.57;100.00
8894;BME280;4483;48.622;9.230;2023-05-10T01:43:01;97301.38;;;14.56;100.00
8894;BME280;4483;48.622;9.230;2023-05-10T01:45:33;97297.09;;;14.55;100.00
8894;BME280;4483;48.622;9.230;2023-05-10T01:48:06;97298.78;;;14.56;100.00
8894;BME280;4483;48.622;9.230;2023-05-10T01:50:35;97303.97;;;14.56;100.00
8894;BME280;4483;48.622;9.230;2023-05-10T01:53:06;97309.16;;;14.56;100.00
8894;BME280;4483;48.622;9.230;2023-05-10T01:55:38;97311.09;;;14.52;100.00
8894;BME280;4483;48.622;9.230;2023-05-10T01:58:07;97309.44;;;14.51;100.00
8894;BME280;4483;48.622;9.230;2023-05-10T02:00:36;97308.69;;;14.49;100.00
8894;BME280;4483;48.622;9.230;2023-05-10T02:03:06;97309.03;;;14.45;100.00
8894;BME280;4483;48.622;9.230;2023-05-10T02:05:35;97312.25;;;14.48;100.00
8894;BME280;4483;48.622;9.230;2023-05-10T02:08:05;97323.63;;;14.46;100.00
8894;BME280;4483;48.622;9.230;2023-05-10T02:10:33;97312.41;;;14.45;100.00
8894;BME280;4483;48.622;9.230;2023-05-10T02:13:02;97312.41;;;14.45;100.00
8894;BME280;4483;48.622;9.230;2023-05-10T02:15:29;97312.63;;;14.42;100.00
8894;BME280;4483;48.622;9.230;2023-05-10T02:17:58;97311.34;;;14.35;100.00
8894;BME280;4483;48.622;9.230;2023-05-10T02:20:28;97323.47;;;14.35;100.00
8894;BME280;4483;48.622;9.230;2023-05-10T02:22:57;97328.66;;;14.35;100.00
8894;BME280;4483;48.622;9.230;2023-05-10T02:25:25;97328.03;;;14.31;100.00
8894;BME280;4483;48.622;9.230;2023-05-10T02:27:54;97331.81;;;14.26;100.00
8894;BME280;4483;48.622;9.230;2023-05-10T02:30:22;97337.94;;;14.25;100.00
8894;BME280;4483;48.622;9.230;2023-05-10T02:32:49;97333.75;;;14.22;100.00
8894;BME280;4483;48.622;9.230;2023-05-10T02:35:17;97333.03;;;14.20;100.00
8894;BME280;4483;48.622;9.230;2023-05-10T02:37:46;97331.38;;;14.19;100.00
8894;BME280;4483;48.622;9.230;2023-05-10T02:40:14;97322.88;;;14.17;100.00
8894;BME280;4483;48.622;9.230;2023-05-10T02:42:42;97330.69;;;14.15;100.00
8894;BME280;4483;48.622;9.230;2023-05-10T02:45:13;97337.84;;;14.12;100.00
8894;BME280;4483;48.622;9.230;2023-05-10T02:47:40;97331.91;;;14.10;100.00
8894;BME280;4483;48.622;9.230;2023-05-10T02:50:08;97332.13;;;14.07;100.00
8894;BME280;4483;48.622;9.230;2023-05-10T02:52:39;97341.56;;;14.08;100.00
8894;BME280;4483;48.622;9.230;2023-05-10T02:55:09;97336.47;;;14.06;100.00
8894;BME280;4483;48.622;9.230;2023-05-10T02:57:41;97333.16;;;14.04;100.00
8894;BME280;4483;48.622;9.230;2023-05-10T03:00:10;97334.19;;;14.02;100.00
8894;BME280;4483;48.622;9.230;2023-05-10T03:02:37;97341.19;;;14.00;100.00
8894;BME280;4483;48.622;9.230;2023-05-10T03:05:04;97342.31;;;13.96;100.00
8894;BME280;4483;48.622;9.230;2023-05-10T03:07:30;97345.09;;;13.93;100.00
8894;BME280;4483;48.622;9.230;2023-05-10T03:09:57;97338.34;;;13.90;100.00
8894;BME280;4483;48.622;9.230;2023-05-10T03:12:33;97336.78;;;13.88;100.00
8894;BME280;4483;48.622;9.230;2023-05-10T03:15:11;97334.28;;;13.86;100.00
8894;BME280;4483;48.622;9.230;2023-05-10T03:17:46;97337.91;;;13.84;100.00
8894;BME280;4483;48.622;9.230;2023-05-10T03:20:21;97338.81;;;13.83;100.00
8894;BME280;4483;48.622;9.230;2023-05-10T03:22:55;97339.22;;;13.77;100.00
8894;BME280;4483;48.622;9.230;2023-05-10T03:25:23;97346.41;;;13.72;100.00
8894;BME280;4483;48.622;9.230;2023-05-10T03:27:52;97336.03;;;13.72;100.00
8894;BME280;4483;48.622;9.230;2023-05-10T03:30:19;97345.84;;;13.67;100.00
8894;BME280;4483;48.622;9.230;2023-05-10T03:32:46;97349.66;;;13.61;100.00
8894;BME280;4483;48.622;9.230;2023-05-10T03:35:13;97355.56;;;13.63;100.00
8894;BME280;4483;48.622;9.230;2023-05-10T03:37:39;97355.13;;;13.57;100.00
8894;BME280;4483;48.622;9.230;2023-05-10T03:40:07;97360.34;;;13.55;100.00
8894;BME280;4483;48.622;9.230;2023-05-10T03:42:34;97358.06;;;13.51;100.00
8894;BME280;4483;48.622;9.230;2023-05-10T03:45:02;97361.56;;;13.50;100.00
8894;BME280;4483;48.622;9.230;2023-05-10T03:47:29;97359.16;;;13.47;100.00
8894;BME280;4483;48.622;9.230;2023-05-10T03:49:55;97358.50;;;13.43;100.00
8894;BME280;4483;48.622;9.230;2023-05-10T03:52:22;97363.78;;;13.42;100.00
8894;BME280;4483;48.622;9.230;2023-05-10T03:54:49;97369.81;;;13.42;100.00
8894;BME280;4483;48.622;9.230;2023-05-10T03:57:15;97362.03;;;13.42;100.00
8894;BME280;4483;48.622;9.230;2023-05-10T03:59:42;97365.44;;;13.43;100.00
8894;BME280;4483;48.622;9.230;2023-05-10T04:02:10;97364.69;;;13.41;100.00
8894;BME280;4483;48.622;9.230;2023-05-10T04:04:36;97369.81;;;13.42;100.00
8894;BME280;4483;48.622;9.230;2023-05-10T04:07:03;97376.63;;;13.43;100.00
8894;BME280;4483;48.622;9.230;2023-05-10T04:09:29;97380.06;;;13.44;100.00
8894;BME280;4483;48.622;9.230;2023-05-10T04:11:56;97377.28;;;13.47;100.00
8894;BME280;4483;48.622;9.230;2023-05-10T04:14:24;97374.88;;;13.44;100.00
8894;BME280;4483;48.622;9.230;2023-05-10T04:16:51;97373.94;;;13.45;100.00
8894;BME280;4483;48.622;9.230;2023-05-10T04:19:19;97377.47;;;13.44;100.00
8894;BME280;4483;48.622;9.230;2023-05-10T04:21:45;97374.88;;;13.44;100.00
8894;BME280;4483;48.622;9.230;2023-05-10T04:24:12;97377.72;;;13.39;100.00
8894;BME280;4483;48.622;9.230;2023-05-10T04:26:38;97383.38;;;13.46;100.00
8894;BME280;4483;48.622;9.230;2023-05-10T04:29:05;97387.63;;;13.47;100.00
8894;BME280;4483;48.622;9.230;2023-05-10T04:31:32;97383.94;;;13.51;100.00
8894;BME280;4483;48.622;9.230;2023-05-10T04:33:59;97382.94;;;13.53;100.00
8894;BME280;4483;48.622;9.230;2023-05-10T04:36:27;97387.91;;;13.56;100.00
8894;BME280;4483;48.622;9.230;2023-05-10T04:38:54;97392.91;;;13.59;100.00
8894;BME280;4483;48.622;9.230;2023-05-10T04:41:20;97390.06;;;13.64;100.00
8894;BME280;4483;48.622;9.230;2023-05-10T04:43:47;97389.88;;;13.67;100.00
8894;BME280;4483;48.622;9.230;2023-05-10T04:46:14;97386.38;;;13.68;100.00
8894;BME280;4483;48.622;9.230;2023-05-10T04:48:41;97396.53;;;13.71;100.00
8894;BME280;4483;48.622;9.230;2023-05-10T04:51:07;97394.78;;;13.71;100.00
8894;BME280;4483;48.622;9.230;2023-05-10T04:53:35;97398.91;;;13.74;100.00
8894;BME280;4483;48.622;9.230;2023-05-10T04:56:02;97398.00;;;13.75;100.00
8894;BME280;4483;48.622;9.230;2023-05-10T04:58:29;97403.75;;;13.80;100.00
8894;BME280;4483;48.622;9.230;2023-05-10T05:00:55;97407.81;;;13.84;100.00
8894;BME280;4483;48.622;9.230;2023-05-10T05:03:22;97405.69;;;13.90;100.00
8894;BME280;4483;48.622;9.230;2023-05-10T05:05:49;97401.13;;;13.94;100.00
8894;BME280;4483;48.622;9.230;2023-05-10T05:08:15;97390.88;;;13.92;100.00
8894;BME280;4483;48.622;9.230;2023-05-10T05:10:43;97403.25;;;14.01;100.00
8894;BME280;4483;48.622;9.230;2023-05-10T05:13:10;97403.91;;;14.05;100.00
8894;BME280;4483;48.622;9.230;2023-05-10T05:15:38;97404.44;;;14.10;100.00
8894;BME280;4483;48.622;9.230;2023-05-10T05:18:05;97406.88;;;14.13;100.00
8894;BME280;4483;48.622;9.230;2023-05-10T05:20:32;97409.25;;;14.16;100.00
8894;BME280;4483;48.622;9.230;2023-05-10T05:22:59;97410.75;;;14.20;100.00
8894;BME280;4483;48.622;9.230;2023-05-10T05:25:25;97416.56;;;14.24;100.00
8894;BME280;4483;48.622;9.230;2023-05-10T05:27:53;97412.06;;;14.27;100.00
8894;BME280;4483;48.622;9.230;2023-05-10T05:30:20;97406.59;;;14.32;100.00
8894;BME280;4483;48.622;9.230;2023-05-10T05:32:46;97415.94;;;14.34;100.00
8894;BME280;4483;48.622;9.230;2023-05-10T05:35:13;97412.31;;;14.37;100.00
8894;BME280;4483;48.622;9.230;2023-05-10T05:37:40;97417.41;;;14.38;100.00
8894;BME280;4483;48.622;9.230;2023-05-10T05:40:07;97418.03;;;14.42;100.00
8894;BME280;4483;48.622;9.230;2023-05-10T05:42:34;97418.69;;;14.45;100.00
8894;BME280;4483;48.622;9.230;2023-05-10T05:45:02;97413.41;;;14.47;100.00
8894;BME280;4483;48.622;9.230;2023-05-10T05:47:29;97408.88;;;14.50;100.00
8894;BME280;4483;48.622;9.230;2023-05-10T05:49:55;97425.97;;;14.53;100.00
8894;BME280;4483;48.622;9.230;2023-05-10T05:52:22;97418.31;;;14.51;100.00
8894;BME280;4483;48.622;9.230;2023-05-10T05:54:48;97424.16;;;14.41;100.00
8894;BME280;4483;48.622;9.230;2023-05-10T05:57:15;97424.28;;;14.39;100.00
8894;BME280;4483;48.622;9.230;2023-05-10T05:59:42;97432.06;;;14.39;100.00
8894;BME280;4483;48.622;9.230;2023-05-10T06:02:10;97423.97;;;14.44;100.00
8894;BME280;4483;48.622;9.230;2023-05-10T06:04:37;97428.88;;;14.48;100.00
8894;BME280;4483;48.622;9.230;2023-05-10T06:07:03;97431.47;;;14.48;100.00
8894;BME280;4483;48.622;9.230;2023-05-10T06:09:30;97431.47;;;14.48;100.00
8894;BME280;4483;48.622;9.230;2023-05-10T06:11:57;97434.50;;;14.55;100.00
8894;BME280;4483;48.622;9.230;2023-05-10T06:14:23;97429.09;;;14.58;100.00
8894;BME280;4483;48.622;9.230;2023-05-10T06:16:50;97446.97;;;14.62;100.00
8894;BME280;4483;48.622;9.230;2023-05-10T06:19:18;97430.47;;;14.63;100.00
8894;BME280;4483;48.622;9.230;2023-05-10T06:21:44;97436.63;;;14.62;100.00
8894;BME280;4483;48.622;9.230;2023-05-10T06:24:11;97441.69;;;14.64;100.00
8894;BME280;4483;48.622;9.230;2023-05-10T06:26:37;97458.09;;;14.64;100.00
8894;BME280;4483;48.622;9.230;2023-05-10T06:29:04;97454.75;;;14.62;100.00
8894;BME280;4483;48.622;9.230;2023-05-10T06:31:31;97459.84;;;14.64;100.00
8894;BME280;4483;48.622;9.230;2023-05-10T06:33:57;97455.84;;;14.72;100.00
8894;BME280;4483;48.622;9.230;2023-05-10T06:36:25;97462.44;;;14.64;100.00
8894;BME280;4483;48.622;9.230;2023-05-10T06:38:52;97455.97;;;14.57;100.00
8894;BME280;4483;48.622;9.230;2023-05-10T06:41:19;97466.16;;;14.60;100.00
8894;BME280;4483;48.622;9.230;2023-05-10T06:43:46;97469.47;;;14.62;100.00
8894;BME280;4483;48.622;9.230;2023-05-10T06:46:12;97475.50;;;14.62;100.00
8894;BME280;4483;48.622;9.230;2023-05-10T06:48:39;97470.00;;;14.67;100.00
8894;BME280;4483;48.622;9.230;2023-05-10T06:51:06;97467.41;;;14.67;100.00
8894;BME280;4483;48.622;9.230;2023-05-10T06:53:34;97466.41;;;14.69;100.00
8894;BME280;4483;48.622;9.230;2023-05-10T06:56:00;97473.81;;;14.75;100.00
8894;BME280;4483;48.622;9.230;2023-05-10T06:58:28;97470.84;;;14.81;100.00
8894;BME280;4483;48.622;9.230;2023-05-10T07:01:01;97471.06;;;14.91;100.00
8894;BME280;4483;48.622;9.230;2023-05-10T07:03:28;97471.09;;;15.03;100.00
8894;BME280;4483;48.622;9.230;2023-05-10T07:06:00;97465.25;;;15.14;100.00
8894;BME280;4483;48.622;9.230;2023-05-10T07:08:26;97478.06;;;15.30;100.00
8894;BME280;4483;48.622;9.230;2023-05-10T07:10:59;97470.78;;;15.35;100.00
8894;BME280;4483;48.622;9.230;2023-05-10T07:13:26;97468.56;;;15.43;100.00
8894;BME280;4483;48.622;9.230;2023-05-10T07:15:52;97470.03;;;15.47;100.00
8894;BME280;4483;48.622;9.230;2023-05-10T07:18:19;97470.03;;;15.47;100.00
8894;BME280;4483;48.622;9.230;2023-05-10T07:20:46;97471.50;;;15.51;100.00
8894;BME280;4483;48.622;9.230;2023-05-10T07:23:12;97471.19;;;15.55;100.00
8894;BME280;4483;48.622;9.230;2023-05-10T07:25:39;97476.09;;;15.60;100.00
8894;BME280;4483;48.622;9.230;2023-05-10T07:28:07;97471.19;;;15.55;100.00
8894;BME280;4483;48.622;9.230;2023-05-10T07:30:33;97477.97;;;15.58;100.00
8894;BME280;4483;48.622;9.230;2023-05-10T07:33:00;97479.31;;;15.63;100.00
8894;BME280;4483;48.622;9.230;2023-05-10T07:35:26;97470.56;;;15.64;100.00
8894;BME280;4483;48.622;9.230;2023-05-10T07:37:53;97475.66;;;15.66;100.00
8894;BME280;4483;48.622;9.230;2023-05-10T07:40:19;97478.25;;;15.66;100.00
8894;BME280;4483;48.622;9.230;2023-05-10T07:42:46;97478.25;;;15.66;100.00
8894;BME280;4483;48.622;9.230;2023-05-10T07:45:14;97480.03;;;15.65;100.00
8894;BME280;4483;48.622;9.230;2023-05-10T07:47:41;97486.16;;;15.64;100.00
8894;BME280;4483;48.622;9.230;2023-05-10T07:50:08;97486.06;;;15.66;100.00
8894;BME280;4483;48.622;9.230;2023-05-10T07:52:34;97485.53;;;15.73;100.00
8894;BME280;4483;48.622;9.230;2023-05-10T07:55:01;97489.38;;;15.68;100.00
8894;BME280;4483;48.622;9.230;2023-05-10T07:57:28;97490.22;;;15.68;100.00
8894;BME280;4483;48.622;9.230;2023-05-10T07:59:54;97493.66;;;15.69;100.00
8894;BME280;4483;48.622;9.230;2023-05-10T08:02:22;97492.59;;;15.71;100.00
8894;BME280;4483;48.622;9.230;2023-05-10T08:04:49;97485.88;;;15.69;100.00
8894;BME280;4483;48.622;9.230;2023-05-10T08:07:16;97484.63;;;15.62;100.00
8894;BME280;4483;48.622;9.230;2023-05-10T08:09:42;97488.13;;;15.61;100.00
8894;BME280;4483;48.622;9.230;2023-05-10T08:12:09;97488.34;;;15.58;100.00
8894;BME280;4483;48.622;9.230;2023-05-10T08:14:35;97491.03;;;15.56;100.00
8894;BME280;4483;48.622;9.230;2023-05-10T08:17:02;97494.16;;;15.61;100.00
8894;BME280;4483;48.622;9.230;2023-05-10T08:19:30;97501.22;;;15.72;100.00
8894;BME280;4483;48.622;9.230;2023-05-10T08:21:57;97494.81;;;15.77;100.00
8894;BME280;4483;48.622;9.230;2023-05-10T08:24:24;97501.06;;;15.87;100.00
8894;BME280;4483;48.622;9.230;2023-05-10T08:26:50;97498.13;;;15.92;100.00
8894;BME280;4483;48.622;9.230;2023-05-10T08:29:17;97496.06;;;15.97;100.00
8894;BME280;4483;48.622;9.230;2023-05-10T08:31:43;97504.19;;;16.05;100.00
8894;BME280;4483;48.622;9.230;2023-05-10T08:34:10;97492.53;;;16.10;100.00
8894;BME280;4483;48.622;9.230;2023-05-10T08:36:38;97500.22;;;16.25;99.71
8894;BME280;4483;48.622;9.230;2023-05-10T08:39:04;97505.84;;;16.31;99.85
8894;BME280;4483;48.622;9.230;2023-05-10T08:41:33;97507.09;;;16.38;98.63
8894;BME280;4483;48.622;9.230;2023-05-10T08:44:04;97494.81;;;16.40;98.73
8894;BME280;4483;48.622;9.230;2023-05-10T08:46:30;97498.25;;;16.53;99.41
8894;BME280;4483;48.622;9.230;2023-05-10T08:49:02;97502.59;;;16.65;97.71
8894;BME280;4483;48.622;9.230;2023-05-10T08:51:32;97510.16;;;16.68;97.76
8894;BME280;4483;48.622;9.230;2023-05-10T08:54:03;97513.06;;;16.76;97.30
8894;BME280;4483;48.622;9.230;2023-05-10T08:56:30;97514.09;;;16.86;96.75
8894;BME280;4483;48.622;9.230;2023-05-10T08:58:57;97509.28;;;16.93;96.66
8894;BME280;4483;48.622;9.230;2023-05-10T09:01:24;97510.50;;;17.00;96.44
8894;BME280;4483;48.622;9.230;2023-05-10T09:03:52;97518.81;;;17.05;95.29
8894;BME280;4483;48.622;9.230;2023-05-10T09:06:19;97519.41;;;17.08;94.24
8894;BME280;4483;48.622;9.230;2023-05-10T09:08:46;97521.31;;;17.06;93.71
8894;BME280;4483;48.622;9.230;2023-05-10T09:11:14;97521.41;;;17.05;93.78
8894;BME280;4483;48.622;9.230;2023-05-10T09:13:41;97515.28;;;17.06;93.86
8894;BME280;4483;48.622;9.230;2023-05-10T09:16:08;97517.03;;;17.05;94.13
8894;BME280;4483;48.622;9.230;2023-05-10T09:18:35;97516.25;;;17.16;94.28
8894;BME280;4483;48.622;9.230;2023-05-10T09:21:02;97521.22;;;17.32;92.98
8894;BME280;4483;48.622;9.230;2023-05-10T09:23:28;97511.78;;;17.42;91.54
8894;BME280;4483;48.622;9.230;2023-05-10T09:26:03;97514.91;;;17.47;90.67
8894;BME280;4483;48.622;9.230;2023-05-10T09:28:33;97512.56;;;17.55;90.69
8894;BME280;4483;48.622;9.230;2023-05-10T09:30:59;97522.31;;;17.64;90.27
8894;BME280;4483;48.622;9.230;2023-05-10T09:33:26;97521.88;;;17.70;89.37
8894;BME280;4483;48.622;9.230;2023-05-10T09:35:53;97520.47;;;17.77;89.11
8894;BME280;4483;48.622;9.230;2023-05-10T09:38:19;97521.47;;;17.87;88.85
8894;BME280;4483;48.622;9.230;2023-05-10T09:40:51;97532.25;;;17.93;88.32
8894;BME280;4483;48.622;9.230;2023-05-10T09:43:19;97526.31;;;17.91;87.18
8894;BME280;4483;48.622;9.230;2023-05-10T09:45:48;97530.59;;;17.92;87.11
8894;BME280;4483;48.622;9.230;2023-05-10T09:48:16;97528.72;;;17.94;87.30
8894;BME280;4483;48.622;9.230;2023-05-10T09:50:42;97525.84;;;17.97;87.31
8894;BME280;4483;48.622;9.230;2023-05-10T09:53:09;97520.66;;;17.97;85.99
8894;BME280;4483;48.622;9.230;2023-05-10T09:55:41;97524.44;;;17.93;85.00
8894;BME280;4483;48.622;9.230;2023-05-10T09:58:10;97517.19;;;17.86;85.52
8894;BME280;4483;48.622;9.230;2023-05-10T10:00:38;97530.56;;;17.81;84.15
8894;BME280;4483;48.622;9.230;2023-05-10T10:03:12;97523.56;;;17.82;84.66
8894;BME280;4483;48.622;9.230;2023-05-10T10:05:40;97526.66;;;17.87;83.42
8894;BME280;4483;48.622;9.230;2023-05-10T10:08:07;97529.28;;;17.87;83.54
8894;BME280;4483;48.622;9.230;2023-05-10T10:10:34;97527.28;;;17.90;82.91
8894;BME280;4483;48.622;9.230;2023-05-10T10:13:01;97525.03;;;17.97;82.80
8894;BME280;4483;48.622;9.230;2023-05-10T10:15:28;97520.56;;;18.10;82.49
8894;BME280;4483;48.622;9.230;2023-05-10T10:17:55;97517.50;;;18.27;82.01
8894;BME280;4483;48.622;9.230;2023-05-10T10:20:23;97517.28;;;18.41;80.54
8894;BME280;4483;48.622;9.230;2023-05-10T10:22:50;97518.00;;;18.65;79.91
8894;BME280;4483;48.622;9.230;2023-05-10T10:25:18;97517.88;;;18.78;79.32
8894;BME280;4483;48.622;9.230;2023-05-10T10:27:53;97513.00;;;18.84;79.25
8894;BME280;4483;48.622;9.230;2023-05-10T10:30:30;97519.88;;;18.85;78.00
8894;BME280;4483;48.622;9.230;2023-05-10T10:33:18;97514.22;;;18.80;77.35
8894;BME280;4483;48.622;9.230;2023-05-10T10:35:58;97512.91;;;18.75;77.69
8894;BME280;4483;48.622;9.230;2023-05-10T10:38:25;97519.44;;;18.69;77.28
8894;BME280;4483;48.622;9.230;2023-05-10T10:41:02;97516.00;;;18.69;76.78
8894;BME280;4483;48.622;9.230;2023-05-10T10:43:29;97517.31;;;18.63;75.31
8894;BME280;4483;48.622;9.230;2023-05-10T10:46:12;97504.50;;;18.49;74.20
8894;BME280;4483;48.622;9.230;2023-05-10T10:48:40;97521.56;;;18.42;74.97
8894;BME280;4483;48.622;9.230;2023-05-10T10:51:08;97516.56;;;18.39;71.97
8894;BME280;4483;48.622;9.230;2023-05-10T10:53:36;97519.38;;;18.14;73.11
8894;BME280;4483;48.622;9.230;2023-05-10T10:56:07;97525.47;;;17.91;73.58
8894;BME280;4483;48.622;9.230;2023-05-10T10:58:35;97523.78;;;17.79;74.32
8894;BME280;4483;48.622;9.230;2023-05-10T11:01:12;97522.91;;;17.67;75.10
8894;BME280;4483;48.622;9.230;2023-05-10T11:03:40;97518.66;;;17.66;75.77
8894;BME280;4483;48.622;9.230;2023-05-10T11:06:08;97523.22;;;17.52;75.88
8894;BME280;4483;48.622;9.230;2023-05-10T11:08:42;97538.66;;;17.42;76.47
8894;BME280;4483;48.622;9.230;2023-05-10T11:11:14;97536.78;;;17.21;77.31
8894;BME280;4483;48.622;9.230;2023-05-10T11:13:42;97555.28;;;16.92;77.32
8894;BME280;4483;48.622;9.230;2023-05-10T11:16:11;97565.75;;;16.67;76.04
8894;BME280;4483;48.622;9.230;2023-05-10T11:18:38;97568.78;;;16.49;74.30
8894;BME280;4483;48.622;9.230;2023-05-10T11:21:04;97569.16;;;16.30;73.82
8894;BME280;4483;48.622;9.230;2023-05-10T11:23:47;97573.81;;;16.00;75.76
8894;BME280;4483;48.622;9.230;2023-05-10T11:26:14;97570.03;;;15.79;76.79
8894;BME280;4483;48.622;9.230;2023-05-10T11:28:41;97575.09;;;15.68;78.12
8894;BME280;4483;48.622;9.230;2023-05-10T11:31:08;97575.66;;;15.46;80.30
8894;BME280;4483;48.622;9.230;2023-05-10T11:33:42;97572.88;;;15.35;80.69
8894;BME280;4483;48.622;9.230;2023-05-10T11:36:11;97579.00;;;15.34;81.57
8894;BME280;4483;48.622;9.230;2023-05-10T11:38:39;97581.69;;;15.33;83.10
8894;BME280;4483;48.622;9.230;2023-05-10T11:41:05;97582.81;;;15.29;84.35
8894;BME280;4483;48.622;9.230;2023-05-10T11:43:34;97580.22;;;15.29;84.43
8894;BME280;4483;48.622;9.230;2023-05-10T11:46:02;97579.28;;;15.30;86.59
8894;BME280;4483;48.622;9.230;2023-05-10T11:48:29;97582.25;;;15.24;86.66
8894;BME280;4483;48.622;9.230;2023-05-10T11:50:55;97591.94;;;15.22;86.75
8894;BME280;4483;48.622;9.230;2023-05-10T11:53:23;97597.50;;;15.16;88.23
8894;BME280;4483;48.622;9.230;2023-05-10T11:55:51;97605.66;;;15.09;89.77
8894;BME280;4483;48.622;9.230;2023-05-10T11:58:18;97604.75;;;15.10;91.05
8894;BME280;4483;48.622;9.230;2023-05-10T12:00:47;97598.22;;;15.18;90.62
8894;BME280;4483;48.622;9.230;2023-05-10T12:03:13;97600.25;;;15.27;92.23
8894;BME280;4483;48.622;9.230;2023-05-10T12:05:40;97607.25;;;15.39;91.91
8894;BME280;4483;48.622;9.230;2023-05-10T12:08:11;97599.47;;;15.53;91.19
8894;BME280;4483;48.622;9.230;2023-05-10T12:10:38;97605.50;;;15.66;92.10
8894;BME280;4483;48.622;9.230;2023-05-10T12:13:10;97604.75;;;15.78;92.48
8894;BME280;4483;48.622;9.230;2023-05-10T12:15:37;97605.09;;;15.98;93.21
8894;BME280;4483;48.622;9.230;2023-05-10T12:18:04;97606.25;;;16.07;92.27
8894;BME280;4483;48.622;9.230;2023-05-10T12:20:31;97598.13;;;16.11;92.46
8894;BME280;4483;48.622;9.230;2023-05-10T12:22:58;97602.09;;;16.17;91.96
8894;BME280;4483;48.622;9.230;2023-05-10T12:25:30;97602.94;;;16.18;92.05
8894;BME280;4483;48.622;9.230;2023-05-10T12:27:59;97602.31;;;16.14;92.26
8894;BME280;4483;48.622;9.230;2023-05-10T12:30:28;97602.09;;;16.17;92.00
8894;BME280;4483;48.622;9.230;2023-05-10T12:33:00;97603.88;;;16.17;92.01
8894;BME280;4483;48.622;9.230;2023-05-10T12:35:30;97607.00;;;16.22;92.19
8894;BME280;4483;48.622;9.230;2023-05-10T12:37:57;97604.00;;;16.28;92.82
8894;BME280;4483;48.622;9.230;2023-05-10T12:40:24;97603.16;;;16.40;92.96
8894;BME280;4483;48.622;9.230;2023-05-10T12:42:51;97603.59;;;16.46;92.72
8894;BME280;4483;48.622;9.230;2023-05-10T12:45:18;97604.44;;;16.59;92.64
8894;BME280;4483;48.622;9.230;2023-05-10T12:47:46;97608.81;;;16.71;92.67
8894;BME280;4483;48.622;9.230;2023-05-10T12:50:13;97603.50;;;16.85;91.89
8894;BME280;4483;48.622;9.230;2023-05-10T12:52:39;97606.69;;;17.01;91.14
8894;BME280;4483;48.622;9.230;2023-05-10T12:55:06;97609.59;;;17.09;90.61
8894;BME280;4483;48.622;9.230;2023-05-10T12:57:33;97595.19;;;17.17;88.75
8894;BME280;4483;48.622;9.230;2023-05-10T13:00:00;97603.75;;;17.19;87.94
8894;BME280;4483;48.622;9.230;2023-05-10T13:02:26;97587.63;;;17.14;85.48
8894;BME280;4483;48.622;9.230;2023-05-10T13:04:54;97588.84;;;17.21;83.97
8894;BME280;4483;48.622;9.230;2023-05-10T13:07:21;97591.69;;;17.18;84.78
8894;BME280;4483;48.622;9.230;2023-05-10T13:09:48;97598.09;;;17.25;85.48
8894;BME280;4483;48.622;9.230;2023-05-10T13:12:14;97593.88;;;17.35;85.37
8894;BME280;4483;48.622;9.230;2023-05-10T13:14:41;97589.28;;;17.51;85.54
8894;BME280;4483;48.622;9.230;2023-05-10T13:17:07;97586.63;;;17.63;84.67
8894;BME280;4483;48.622;9.230;2023-05-10T13:19:34;97583.97;;;17.76;82.39